Time;durP1;ratioP1;P1;durP2;ratioP2;P2;SDS_P1;SDS_P2;PMS_P1;PMS_P2;Temp;Humidity;BMP_temperature;BMP_pressure;BME280_temperature;BME280_humidity;BME280_pressure;Samples;Min_cycle;Max_cycle;Signal;HPM_P1;HPM_P2
2022/05/28 00:00:17;;;;;;;9.95;2.28;;;;;;;;;;5099484;28;20051;-73
2022/05/28 00:02:43;;;;;;;8.57;2.42;;;;;;;;;;5104421;28;20048;-72
2022/05/28 00:05:09;;;;;;;11.02;2.85;;;;;;;;;;5109030;28;20309;-72
2022/05/28 00:07:35;;;;;;;9.73;2.13;;;;;;;;;;5097650;28;20488;-72
2022/05/28 00:10:02;;;;;;;9.73;2.00;;;;;;;;;;5109089;28;20036;-72
2022/05/28 00:12:29;;;;;;;11.15;2.53;;;;;;;;;;5102700;28;20074;-72
2022/05/28 00:14:56;;;;;;;9.20;1.90;;;;;;;;;;5100936;28;20239;-72
2022/05/28 00:17:22;;;;;;;10.95;2.38;;;;;;;;;;5110542;28;20399;-71
2022/05/28 00:19:49;;;;;;;10.23;2.05;;;;;;;;;;5098667;28;20074;-72
2022/05/28 00:22:15;;;;;;;8.18;1.95;;;;;;;;;;5105086;28;20051;-73
2022/05/28 00:24:41;;;;;;;7.38;1.77;;;;;;;;;;5106662;28;20558;-72
2022/05/28 00:27:07;;;;;;;6.15;1.83;;;;;;;;;;5097318;28;20044;-72
2022/05/28 00:29:34;;;;;;;8.93;2.08;;;;;;;;;;5109866;28;20123;-72
2022/05/28 00:32:00;;;;;;;8.13;1.63;;;;;;;;;;5101872;28;20063;-72
2022/05/28 00:34:27;;;;;;;6.97;1.65;;;;;;;;;;5102201;28;20399;-72
2022/05/28 00:36:54;;;;;;;8.07;1.83;;;;;;;;;;5109443;28;20051;-72
2022/05/28 00:39:20;;;;;;;10.13;1.55;;;;;;;;;;5098499;27;20079;-72
2022/05/28 00:41:46;;;;;;;10.82;2.03;;;;;;;;;;5106763;28;20403;-73
2022/05/28 00:44:12;;;;;;;8.85;1.67;;;;;;;;;;5104844;28;20126;-72
2022/05/28 00:46:38;;;;;;;7.53;1.63;;;;;;;;;;5098602;28;20094;-72
2022/05/28 00:49:08;;;;;;;6.95;1.85;;;;;;;;;;5093225;28;20567;-72
2022/05/28 00:51:36;;;;;;;8.88;1.63;;;;;;;;;;5080052;28;20078;-72
2022/05/28 00:54:04;;;;;;;7.38;2.05;;;;;;;;;;5104770;28;20035;-72
2022/05/28 00:56:30;;;;;;;11.82;2.10;;;;;;;;;;5098090;28;20040;-71
2022/05/28 00:58:58;;;;;;;9.38;1.80;;;;;;;;;;5109917;28;20047;-72
2022/05/28 01:01:25;;;;;;;8.45;2.05;;;;;;;;;;5100654;28;20122;-72
2022/05/28 01:04:03;;;;;;;9.90;2.00;;;;;;;;;;5102711;28;20097;-72
2022/05/28 01:06:49;;;;;;;7.05;1.58;;;;;;;;;;5107327;28;20043;-72
2022/05/28 01:09:23;;;;;;;10.75;2.03;;;;;;;;;;5096948;28;20044;-72
2022/05/28 01:11:53;;;;;;;9.50;1.80;;;;;;;;;;5111011;28;20047;-72
2022/05/28 01:14:29;;;;;;;11.48;2.10;;;;;;;;;;5094250;28;20048;-72
2022/05/28 01:16:59;;;;;;;11.23;2.10;;;;;;;;;;5080549;28;20042;-72
2022/05/28 01:19:28;;;;;;;10.13;2.15;;;;;;;;;;5100810;28;20507;-72
2022/05/28 01:22:04;;;;;;;9.57;2.08;;;;;;;;;;5087497;28;20167;-72
2022/05/28 01:24:33;;;;;;;10.48;2.45;;;;;;;;;;5094315;28;20346;-73
2022/05/28 01:27:08;;;;;;;9.93;2.78;;;;;;;;;;5103506;28;20052;-72
2022/05/28 01:29:52;;;;;;;13.65;2.42;;;;;;;;;;5102387;28;20078;-73
2022/05/28 01:32:19;;;;;;;7.85;2.10;;;;;;;;;;5093539;28;20060;-72
2022/05/28 01:34:46;;;;;;;8.70;1.92;;;;;;;;;;5103320;28;20035;-72
2022/05/28 01:37:13;;;;;;;12.07;2.75;;;;;;;;;;5099811;28;20055;-72
2022/05/28 01:39:40;;;;;;;7.50;1.88;;;;;;;;;;5095482;28;20043;-72
2022/05/28 01:42:08;;;;;;;11.00;1.98;;;;;;;;;;5105968;28;20039;-72
2022/05/28 01:44:35;;;;;;;8.63;1.92;;;;;;;;;;5096946;28;20043;-73
2022/05/28 01:47:01;;;;;;;7.55;2.05;;;;;;;;;;5099578;28;20239;-72
2022/05/28 01:49:27;;;;;;;10.70;2.25;;;;;;;;;;5103687;28;20410;-72
2022/05/28 01:51:56;;;;;;;10.68;1.83;;;;;;;;;;5092895;28;20040;-72
2022/05/28 01:54:24;;;;;;;10.10;2.17;;;;;;;;;;5103771;28;20406;-72
2022/05/28 01:56:52;;;;;;;11.48;2.05;;;;;;;;;;5099517;28;20066;-72
2022/05/28 01:59:21;;;;;;;7.65;1.88;;;;;;;;;;5078185;28;20127;-72
2022/05/28 02:01:48;;;;;;;10.55;2.35;;;;;;;;;;5105634;28;20035;-72
2022/05/28 02:04:14;;;;;;;6.57;1.92;;;;;;;;;;5094805;28;20066;-73
2022/05/28 02:06:41;;;;;;;8.23;2.10;;;;;;;;;;5099271;28;20069;-72
2022/05/28 02:09:09;;;;;;;16.23;2.10;;;;;;;;;;5094872;28;20076;-73
2022/05/28 02:11:42;;;;;;;8.85;2.38;;;;;;;;;;5105901;28;20050;-72
2022/05/28 02:14:14;;;;;;;8.57;2.47;;;;;;;;;;5095911;28;20407;-72
2022/05/28 02:16:58;;;;;;;16.02;2.15;;;;;;;;;;5097447;28;20039;-72
2022/05/28 02:19:34;;;;;;;10.85;2.03;;;;;;;;;;5105108;28;20035;-72
2022/05/28 02:22:06;;;;;;;6.57;1.98;;;;;;;;;;5095579;28;20043;-72
2022/05/28 02:25:01;;;;;;;7.00;2.10;;;;;;;;;;5097573;28;20040;-72
2022/05/28 02:27:29;;;;;;;8.88;2.20;;;;;;;;;;5096596;28;20095;-72
2022/05/28 02:29:56;;;;;;;8.13;2.10;;;;;;;;;;5095815;28;20419;-72
2022/05/28 02:32:23;;;;;;;12.52;2.38;;;;;;;;;;5097816;28;20089;-72
2022/05/28 02:34:50;;;;;;;9.00;2.05;;;;;;;;;;5103887;28;20167;-72
2022/05/28 02:37:20;;;;;;;8.90;2.05;;;;;;;;;;5092078;28;20522;-73
2022/05/28 02:39:46;;;;;;;13.73;2.58;;;;;;;;;;5101332;28;20044;-72
2022/05/28 02:42:12;;;;;;;10.63;2.03;;;;;;;;;;5099548;28;20122;-72
2022/05/28 02:44:39;;;;;;;10.93;2.10;;;;;;;;;;5093455;28;20101;-72
2022/05/28 02:47:05;;;;;;;11.05;2.17;;;;;;;;;;5087703;28;20127;-72
2022/05/28 02:49:32;;;;;;;10.73;2.22;;;;;;;;;;5095088;28;20043;-72
2022/05/28 02:52:01;;;;;;;11.27;2.17;;;;;;;;;;5097818;28;20040;-72
2022/05/28 02:54:27;;;;;;;12.40;2.75;;;;;;;;;;5103087;28;20048;-71
2022/05/28 02:57:03;;;;;;;9.98;2.00;;;;;;;;;;5075124;28;20044;-72
2022/05/28 02:59:29;;;;;;;9.00;2.25;;;;;;;;;;5100678;28;20478;-73
2022/05/28 03:01:56;;;;;;;10.20;2.35;;;;;;;;;;5099591;28;20044;-72
2022/05/28 03:04:22;;;;;;;11.43;2.83;;;;;;;;;;5108723;28;20040;-72
2022/05/28 03:06:48;;;;;;;9.55;2.60;;;;;;;;;;5091410;28;20050;-74
2022/05/28 03:09:16;;;;;;;10.20;2.40;;;;;;;;;;5101386;28;20388;-72
2022/05/28 03:11:42;;;;;;;12.15;3.35;;;;;;;;;;5099049;28;20048;-72
2022/05/28 03:14:08;;;;;;;10.82;2.92;;;;;;;;;;5092753;28;20127;-73
2022/05/28 03:16:34;;;;;;;10.98;2.50;;;;;;;;;;5104748;28;20036;-73
2022/05/28 03:19:01;;;;;;;9.02;3.28;;;;;;;;;;5094799;28;20539;-72
2022/05/28 03:21:27;;;;;;;11.82;3.20;;;;;;;;;;5098847;28;20074;-73
2022/05/28 03:23:53;;;;;;;12.48;2.58;;;;;;;;;;5093557;28;20039;-72
2022/05/28 03:26:20;;;;;;;11.90;3.45;;;;;;;;;;5104343;28;20139;-73
2022/05/28 03:28:48;;;;;;;12.05;2.85;;;;;;;;;;5093452;28;20045;-72
2022/05/28 03:31:15;;;;;;;11.30;3.28;;;;;;;;;;5096955;28;20044;-73
2022/05/28 03:33:41;;;;;;;14.80;3.42;;;;;;;;;;5102064;28;20486;-73
2022/05/28 03:36:07;;;;;;;14.43;3.20;;;;;;;;;;5090964;28;20362;-73
2022/05/28 03:38:34;;;;;;;13.27;3.30;;;;;;;;;;5085066;28;20059;-73
2022/05/28 03:41:01;;;;;;;11.02;3.22;;;;;;;;;;5097400;28;20550;-74
2022/05/28 03:43:27;;;;;;;11.82;3.33;;;;;;;;;;5094149;28;20453;-73
2022/05/28 03:45:54;;;;;;;13.57;3.55;;;;;;;;;;5103994;28;20040;-73
2022/05/28 03:48:20;;;;;;;13.82;3.75;;;;;;;;;;5092307;28;20046;-73
2022/05/28 03:50:46;;;;;;;17.05;3.67;;;;;;;;;;5098641;28;20483;-74
2022/05/28 03:53:12;;;;;;;14.43;3.58;;;;;;;;;;5100474;28;20031;-73
2022/05/28 03:55:39;;;;;;;15.93;3.88;;;;;;;;;;5091199;28;20491;-73
2022/05/28 03:58:06;;;;;;;15.77;4.00;;;;;;;;;;5102980;28;20044;-73
2022/05/28 04:00:32;;;;;;;14.93;4.28;;;;;;;;;;5095678;28;20050;-74
2022/05/28 04:02:58;;;;;;;17.38;3.67;;;;;;;;;;5095138;28;20044;-74
2022/05/28 04:05:25;;;;;;;13.80;3.17;;;;;;;;;;5103861;28;20085;-74
2022/05/28 04:07:51;;;;;;;14.45;3.85;;;;;;;;;;5075075;28;20605;-74
2022/05/28 04:10:17;;;;;;;15.00;4.60;;;;;;;;;;5099415;28;20502;-74
2022/05/28 04:12:44;;;;;;;13.77;3.50;;;;;;;;;;5098771;28;20126;-74
2022/05/28 04:15:11;;;;;;;16.77;3.85;;;;;;;;;;5091681;28;20115;-73
2022/05/28 04:17:37;;;;;;;10.82;4.07;;;;;;;;;;5086808;28;20487;-73
2022/05/28 04:20:04;;;;;;;14.73;3.25;;;;;;;;;;5094511;28;20484;-74
2022/05/28 04:22:30;;;;;;;15.95;3.70;;;;;;;;;;5095946;28;20040;-74
2022/05/28 04:24:57;;;;;;;12.80;4.15;;;;;;;;;;5102383;28;20040;-73
2022/05/28 04:27:23;;;;;;;15.68;3.58;;;;;;;;;;5090752;28;20036;-73
2022/05/28 04:29:49;;;;;;;14.55;4.03;;;;;;;;;;5107707;28;20500;-73
2022/05/28 04:32:15;;;;;;;15.50;3.50;;;;;;;;;;5096822;28;20040;-73
2022/05/28 04:34:41;;;;;;;14.38;3.75;;;;;;;;;;5096052;28;20047;-72
2022/05/28 04:37:07;;;;;;;16.70;3.35;;;;;;;;;;5102981;28;20058;-73
2022/05/28 04:39:33;;;;;;;15.65;3.33;;;;;;;;;;5092877;28;20048;-73
2022/05/28 04:41:59;;;;;;;14.88;3.47;;;;;;;;;;5082952;28;20101;-73
2022/05/28 04:44:26;;;;;;;12.15;3.45;;;;;;;;;;5087571;28;20047;-72
2022/05/28 04:46:52;;;;;;;18.27;3.72;;;;;;;;;;5094433;28;20079;-73
2022/05/28 04:49:18;;;;;;;16.45;3.60;;;;;;;;;;5105735;28;20100;-72
2022/05/28 04:51:44;;;;;;;13.43;3.17;;;;;;;;;;5100019;28;20119;-73
2022/05/28 04:54:10;;;;;;;13.63;3.72;;;;;;;;;;5097650;28;20077;-72
2022/05/28 04:56:37;;;;;;;16.67;4.07;;;;;;;;;;5107265;28;20503;-72
2022/05/28 04:59:04;;;;;;;14.48;3.65;;;;;;;;;;5094883;28;20047;-73
2022/05/28 05:01:30;;;;;;;13.55;3.67;;;;;;;;;;5102235;28;20048;-73
2022/05/28 05:03:56;;;;;;;14.82;4.03;;;;;;;;;;5102911;28;20035;-73
2022/05/28 05:06:22;;;;;;;14.48;4.25;;;;;;;;;;5094275;28;20052;-72
2022/05/28 05:08:48;;;;;;;13.70;3.80;;;;;;;;;;5077657;28;20036;-73
2022/05/28 05:11:16;;;;;;;15.63;3.47;;;;;;;;;;5102545;28;20089;-73
2022/05/28 05:13:42;;;;;;;10.27;3.10;;;;;;;;;;5101964;28;20043;-74
2022/05/28 05:16:09;;;;;;;13.65;3.20;;;;;;;;;;5094745;28;20036;-73
2022/05/28 05:18:35;;;;;;;15.70;4.38;;;;;;;;;;5106395;28;20038;-73
2022/05/28 05:21:02;;;;;;;18.77;4.38;;;;;;;;;;5097269;28;20040;-74
2022/05/28 05:23:28;;;;;;;16.92;3.60;;;;;;;;;;5099312;28;20032;-73
2022/05/28 05:25:54;;;;;;;14.77;3.72;;;;;;;;;;5105347;28;20569;-73
2022/05/28 05:28:20;;;;;;;12.77;3.67;;;;;;;;;;5093494;28;20089;-74
2022/05/28 05:30:46;;;;;;;17.73;3.83;;;;;;;;;;5103631;28;20441;-74
2022/05/28 05:33:13;;;;;;;15.63;3.58;;;;;;;;;;5100182;28;20039;-74
2022/05/28 05:35:45;;;;;;;13.88;3.70;;;;;;;;;;5095580;28;20097;-74
2022/05/28 05:38:11;;;;;;;13.85;3.42;;;;;;;;;;5106012;28;20096;-74
2022/05/28 05:40:37;;;;;;;14.38;3.85;;;;;;;;;;5096238;28;20122;-73
2022/05/28 05:43:04;;;;;;;15.50;3.47;;;;;;;;;;5099550;28;20414;-73
2022/05/28 05:45:31;;;;;;;15.75;3.83;;;;;;;;;;5104136;28;20039;-73
2022/05/28 05:47:57;;;;;;;14.10;3.45;;;;;;;;;;5093064;28;20047;-73
2022/05/28 05:50:23;;;;;;;17.58;3.97;;;;;;;;;;5104167;28;20062;-74
2022/05/28 05:52:49;;;;;;;17.13;4.00;;;;;;;;;;5099060;28;20444;-72
2022/05/28 05:55:16;;;;;;;13.85;3.60;;;;;;;;;;5086857;28;20098;-73
2022/05/28 05:57:42;;;;;;;13.07;3.55;;;;;;;;;;5092813;28;20055;-74
2022/05/28 06:00:08;;;;;;;17.77;4.22;;;;;;;;;;5104236;28;20560;-73
2022/05/28 06:02:35;;;;;;;11.98;3.45;;;;;;;;;;5098718;28;20171;-74
2022/05/28 06:05:01;;;;;;;12.02;3.80;;;;;;;;;;5079308;28;20416;-73
2022/05/28 06:07:27;;;;;;;13.93;3.85;;;;;;;;;;5105677;28;20065;-73
2022/05/28 06:09:53;;;;;;;12.63;3.17;;;;;;;;;;5093847;28;20088;-73
2022/05/28 06:12:19;;;;;;;18.83;4.05;;;;;;;;;;5100728;28;20036;-73
2022/05/28 06:14:45;;;;;;;16.00;4.22;;;;;;;;;;5101649;28;20068;-72
2022/05/28 06:17:11;;;;;;;11.65;3.05;;;;;;;;;;5092813;28;20123;-73
2022/05/28 06:19:37;;;;;;;12.10;2.88;;;;;;;;;;5076576;28;20513;-73
2022/05/28 06:22:04;;;;;;;15.48;3.58;;;;;;;;;;5101215;28;20348;-73
2022/05/28 06:24:30;;;;;;;18.20;3.95;;;;;;;;;;5100416;28;20088;-73
2022/05/28 06:27:18;;;;;;;13.85;3.38;;;;;;;;;;5092999;28;20044;-73
2022/05/28 06:29:44;;;;;;;13.93;3.50;;;;;;;;;;5071085;28;20040;-73
2022/05/28 06:32:11;;;;;;;14.95;3.80;;;;;;;;;;5088364;28;20032;-73
2022/05/28 06:34:37;;;;;;;18.10;4.28;;;;;;;;;;5088601;28;20043;-72
2022/05/28 06:37:07;;;;;;;16.15;3.50;;;;;;;;;;5090202;28;20044;-74
2022/05/28 06:39:34;;;;;;;14.10;3.30;;;;;;;;;;5102551;28;20048;-73
2022/05/28 06:42:00;;;;;;;11.25;3.33;;;;;;;;;;5099237;28;20040;-73
2022/05/28 06:44:26;;;;;;;16.50;3.50;;;;;;;;;;5089794;28;20040;-73
2022/05/28 06:46:54;;;;;;;13.18;3.75;;;;;;;;;;5087759;28;20040;-73
2022/05/28 06:49:20;;;;;;;12.73;3.30;;;;;;;;;;5087735;28;20047;-73
2022/05/28 06:51:46;;;;;;;12.60;3.90;;;;;;;;;;5089597;28;20043;-72
2022/05/28 06:54:12;;;;;;;12.95;3.30;;;;;;;;;;5087866;28;20039;-73
2022/05/28 06:56:39;;;;;;;12.30;3.10;;;;;;;;;;5088320;28;20582;-73
2022/05/28 06:59:05;;;;;;;12.32;3.08;;;;;;;;;;5088578;28;20177;-73
2022/05/28 07:01:31;;;;;;;9.43;2.78;;;;;;;;;;5096870;28;20043;-73
2022/05/28 07:03:57;;;;;;;10.88;2.50;;;;;;;;;;5099928;28;20046;-73
2022/05/28 07:06:23;;;;;;;9.25;2.25;;;;;;;;;;5104485;28;20040;-75
2022/05/28 07:08:50;;;;;;;7.45;2.63;;;;;;;;;;5104360;28;20048;-73
2022/05/28 07:11:16;;;;;;;14.63;2.75;;;;;;;;;;5095435;28;20120;-74
2022/05/28 07:13:43;;;;;;;10.07;2.80;;;;;;;;;;5087303;28;20035;-73
2022/05/28 07:16:09;;;;;;;11.52;2.83;;;;;;;;;;5103282;28;20120;-74
2022/05/28 07:18:36;;;;;;;10.55;2.80;;;;;;;;;;5091572;28;20077;-73
2022/05/28 07:21:03;;;;;;;13.38;3.00;;;;;;;;;;5100390;28;20046;-74
2022/05/28 07:23:30;;;;;;;14.88;3.08;;;;;;;;;;5099008;28;20043;-73
2022/05/28 07:25:59;;;;;;;12.98;2.90;;;;;;;;;;5075247;28;20487;-73
2022/05/28 07:28:26;;;;;;;11.23;3.20;;;;;;;;;;5103911;28;20039;-73
2022/05/28 07:30:56;;;;;;;13.15;3.00;;;;;;;;;;5095384;28;20040;-73
2022/05/28 07:33:25;;;;;;;15.15;3.17;;;;;;;;;;5078842;28;20051;-73
2022/05/28 07:35:51;;;;;;;12.13;2.78;;;;;;;;;;5103909;28;20074;-72
2022/05/28 07:38:17;;;;;;;9.70;3.35;;;;;;;;;;5075007;28;20051;-74
2022/05/28 07:40:44;;;;;;;12.00;3.15;;;;;;;;;;5099743;28;20200;-72
2022/05/28 07:43:11;;;;;;;9.82;2.65;;;;;;;;;;5099351;28;20061;-73
2022/05/28 07:45:38;;;;;;;11.90;2.88;;;;;;;;;;5107551;28;20039;-72
2022/05/28 07:48:05;;;;;;;14.40;2.95;;;;;;;;;;5087861;28;20232;-73
2022/05/28 07:50:31;;;;;;;11.82;3.25;;;;;;;;;;5081150;28;20044;-73
2022/05/28 07:52:57;;;;;;;16.35;3.90;;;;;;;;;;5083582;28;20562;-73
2022/05/28 07:55:23;;;;;;;11.75;3.33;;;;;;;;;;5088705;28;20609;-72
2022/05/28 07:57:50;;;;;;;16.55;3.72;;;;;;;;;;5083010;28;20044;-73
2022/05/28 08:00:17;;;;;;;12.25;3.20;;;;;;;;;;5089071;28;20553;-74
2022/05/28 08:02:43;;;;;;;17.83;3.53;;;;;;;;;;5085344;28;20043;-73
2022/05/28 08:05:10;;;;;;;14.70;3.95;;;;;;;;;;5065678;28;20713;-73
2022/05/28 08:07:36;;;;;;;13.25;3.38;;;;;;;;;;5088338;28;20497;-73
2022/05/28 08:10:03;;;;;;;16.83;3.47;;;;;;;;;;5084757;28;20097;-73
2022/05/28 08:12:29;;;;;;;16.15;3.42;;;;;;;;;;5095374;28;20096;-72
2022/05/28 08:14:55;;;;;;;17.20;3.90;;;;;;;;;;5084299;28;20524;-73
2022/05/28 08:17:22;;;;;;;13.65;3.25;;;;;;;;;;5098642;28;20036;-73
2022/05/28 08:19:48;;;;;;;11.52;3.65;;;;;;;;;;5101133;28;20047;-73
2022/05/28 08:24:59;;;;;;;15.80;4.00;;;;;;;;;;5089545;28;20048;-73
2022/05/28 08:27:25;;;;;;;13.65;3.22;;;;;;;;;;5090392;28;20445;-74
2022/05/28 08:29:51;;;;;;;13.20;3.08;;;;;;;;;;5083317;28;20044;-73
2022/05/28 08:32:18;;;;;;;12.43;3.00;;;;;;;;;;5085324;28;20063;-73
2022/05/28 08:34:44;;;;;;;14.20;3.08;;;;;;;;;;5090732;28;20036;-73
2022/05/28 08:37:11;;;;;;;13.82;3.60;;;;;;;;;;5091525;28;20044;-73
2022/05/28 08:39:37;;;;;;;11.55;3.17;;;;;;;;;;5086165;28;20050;-74
2022/05/28 08:42:04;;;;;;;10.82;3.30;;;;;;;;;;5073405;28;20097;-73
2022/05/28 08:44:32;;;;;;;9.95;2.90;;;;;;;;;;5089505;28;20431;-73
2022/05/28 08:47:07;;;;;;;11.80;2.53;;;;;;;;;;5093008;28;20040;-73
2022/05/28 08:49:34;;;;;;;9.73;2.67;;;;;;;;;;5085606;28;20067;-73
2022/05/28 08:52:03;;;;;;;10.07;2.65;;;;;;;;;;5084678;28;20483;-74
2022/05/28 08:54:30;;;;;;;13.38;2.83;;;;;;;;;;5086893;28;20275;-73
2022/05/28 08:56:58;;;;;;;11.43;2.83;;;;;;;;;;5074169;28;20441;-73
2022/05/28 08:59:27;;;;;;;11.43;3.38;;;;;;;;;;5087167;28;20445;-74
2022/05/28 09:01:54;;;;;;;11.68;3.30;;;;;;;;;;5087627;28;20044;-74
2022/05/28 09:04:23;;;;;;;18.30;3.28;;;;;;;;;;5081181;28;20084;-73
2022/05/28 09:06:53;;;;;;;19.63;3.80;;;;;;;;;;5093887;28;20713;-74
2022/05/28 09:09:26;;;;;;;15.35;3.58;;;;;;;;;;5102800;28;20534;-73
2022/05/28 09:11:58;;;;;;;15.25;3.13;;;;;;;;;;5093738;28;20047;-75
2022/05/28 09:14:27;;;;;;;11.30;2.80;;;;;;;;;;5080258;28;20036;-73
2022/05/28 09:17:02;;;;;;;13.20;3.00;;;;;;;;;;5082430;28;20140;-73
2022/05/28 09:19:31;;;;;;;11.88;2.60;;;;;;;;;;5089706;28;20079;-74
2022/05/28 09:21:57;;;;;;;9.35;2.30;;;;;;;;;;5086588;28;20119;-74
2022/05/28 09:24:25;;;;;;;11.25;2.97;;;;;;;;;;5075858;28;20039;-73
2022/05/28 09:26:54;;;;;;;11.07;3.00;;;;;;;;;;5082440;28;20433;-74
2022/05/28 09:29:23;;;;;;;12.68;2.90;;;;;;;;;;5085388;28;20052;-74
2022/05/28 09:31:59;;;;;;;14.20;3.15;;;;;;;;;;5095136;28;20051;-73
2022/05/28 09:34:28;;;;;;;13.95;3.13;;;;;;;;;;5088966;28;20100;-74
2022/05/28 09:37:13;;;;;;;13.00;3.45;;;;;;;;;;5098554;28;20514;-74
2022/05/28 09:39:39;;;;;;;;;;;;;;;;;;5092428;28;20180;-74
2022/05/28 09:42:12;;;;;;;13.25;3.25;;;;;;;;;;5088554;28;19941;-73
2022/05/28 09:44:50;;;;;;;9.95;3.03;;;;;;;;;;5088148;28;20515;-74
2022/05/28 09:47:17;;;;;;;11.77;2.63;;;;;;;;;;5094580;28;20514;-74
2022/05/28 09:49:49;;;;;;;7.55;2.80;;;;;;;;;;5096568;28;20051;-74
2022/05/28 09:52:21;;;;;;;12.07;3.05;;;;;;;;;;5097528;28;20032;-74
2022/05/28 09:54:47;;;;;;;14.18;3.30;;;;;;;;;;5096460;28;20491;-74
2022/05/28 09:57:22;;;;;;;13.30;2.97;;;;;;;;;;5071019;28;20089;-74
2022/05/28 09:59:57;;;;;;;14.23;3.08;;;;;;;;;;5086698;28;20270;-74
2022/05/28 10:02:43;;;;;;;11.20;3.17;;;;;;;;;;5086524;28;20040;-74
2022/05/28 10:05:22;;;;;;;13.27;3.03;;;;;;;;;;5085675;28;20173;-73
2022/05/28 10:07:50;;;;;;;11.02;2.47;;;;;;;;;;5086844;28;20052;-73
2022/05/28 10:10:19;;;;;;;11.82;2.75;;;;;;;;;;5084623;28;20043;-73
2022/05/28 10:12:46;;;;;;;13.13;3.35;;;;;;;;;;5086520;28;20343;-73
2022/05/28 10:15:17;;;;;;;13.43;3.05;;;;;;;;;;5086711;28;20047;-74
2022/05/28 10:17:44;;;;;;;13.10;3.05;;;;;;;;;;5088836;28;20043;-73
2022/05/28 10:20:18;;;;;;;12.60;2.60;;;;;;;;;;5084337;28;20062;-73
2022/05/28 10:22:46;;;;;;;11.23;3.05;;;;;;;;;;5085117;28;20048;-74
2022/05/28 10:25:23;;;;;;;17.38;3.00;;;;;;;;;;5093180;28;20044;-74
2022/05/28 10:27:51;;;;;;;14.90;3.53;;;;;;;;;;5089843;28;20396;-73
2022/05/28 10:30:31;;;;;;;12.60;3.10;;;;;;;;;;5081938;28;20032;-74
2022/05/28 10:32:59;;;;;;;11.32;2.75;;;;;;;;;;5083840;28;20044;-73
2022/05/28 10:35:27;;;;;;;11.55;2.65;;;;;;;;;;5079406;28;20043;-73
2022/05/28 10:37:53;;;;;;;13.13;3.30;;;;;;;;;;5071884;28;20048;-73
2022/05/28 10:40:24;;;;;;;14.43;3.30;;;;;;;;;;5077647;28;20054;-74
2022/05/28 10:42:54;;;;;;;12.38;2.80;;;;;;;;;;5096398;28;20100;-74
2022/05/28 10:45:21;;;;;;;10.13;2.42;;;;;;;;;;5099124;28;20398;-74
2022/05/28 10:47:56;;;;;;;10.70;3.03;;;;;;;;;;5080197;28;20138;-74
2022/05/28 10:50:32;;;;;;;11.95;2.35;;;;;;;;;;5085368;28;20426;-72
2022/05/28 10:53:12;;;;;;;10.63;2.47;;;;;;;;;;5092948;28;20039;-72
2022/05/28 10:55:42;;;;;;;10.93;2.15;;;;;;;;;;5083372;28;20105;-73
2022/05/28 10:58:22;;;;;;;12.35;2.08;;;;;;;;;;5093932;28;20044;-73
2022/05/28 11:00:54;;;;;;;9.43;1.90;;;;;;;;;;5086240;28;20459;-74
2022/05/28 11:03:24;;;;;;;9.82;2.00;;;;;;;;;;5085497;28;20509;-73
2022/05/28 11:06:09;;;;;;;10.38;2.15;;;;;;;;;;5082837;28;20089;-74
2022/05/28 11:08:35;;;;;;;;;;;;;;;;;;5084685;28;20126;-73
2022/05/28 11:11:12;;;;;;;5.50;1.73;;;;;;;;;;5082529;28;20006;-73
2022/05/28 11:14:00;;;;;;;8.57;1.80;;;;;;;;;;5064496;28;20538;-73
2022/05/28 11:16:52;;;;;;;15.32;2.38;;;;;;;;;;5082236;28;20054;-74
2022/05/28 11:19:18;;;;;;;7.70;1.77;;;;;;;;;;5087437;28;20372;-73
2022/05/28 11:21:55;;;;;;;6.60;2.00;;;;;;;;;;5084462;28;20036;-73
2022/05/28 11:24:24;;;;;;;5.97;1.70;;;;;;;;;;5096831;28;20043;-74
2022/05/28 11:26:55;;;;;;;8.15;2.03;;;;;;;;;;5086561;28;20043;-73
2022/05/28 11:29:26;;;;;;;7.82;2.25;;;;;;;;;;5099298;28;20046;-74
2022/05/28 11:32:04;;;;;;;10.20;2.00;;;;;;;;;;5090497;28;20048;-73
2022/05/28 11:34:30;;;;;;;9.82;2.00;;;;;;;;;;5084489;28;20063;-74
2022/05/28 11:36:59;;;;;;;11.23;2.08;;;;;;;;;;5086457;28;20133;-73
2022/05/28 11:39:37;;;;;;;12.95;2.40;;;;;;;;;;5086449;28;20399;-73
2022/05/28 11:42:06;;;;;;;10.05;2.63;;;;;;;;;;5086757;28;20399;-73
2022/05/28 11:44:36;;;;;;;12.02;2.50;;;;;;;;;;5086797;28;20097;-74
2022/05/28 11:47:05;;;;;;;10.13;2.08;;;;;;;;;;5087578;28;20044;-74
2022/05/28 11:52:43;;;;;;;12.02;2.55;;;;;;;;;;5085048;28;20124;-74
2022/05/28 11:55:13;;;;;;;12.93;2.95;;;;;;;;;;5084566;28;20713;-73
2022/05/28 11:57:42;;;;;;;9.88;1.90;;;;;;;;;;5088179;28;20032;-74
2022/05/28 12:00:10;;;;;;;12.27;2.50;;;;;;;;;;5086981;28;20046;-74
2022/05/28 12:02:40;;;;;;;10.02;2.33;;;;;;;;;;5088205;28;20096;-74
2022/05/28 12:05:18;;;;;;;11.13;2.75;;;;;;;;;;5086193;28;20043;-74
2022/05/28 12:07:45;;;;;;;9.10;2.42;;;;;;;;;;5070948;28;20036;-73
2022/05/28 12:10:15;;;;;;;10.65;3.05;;;;;;;;;;5094684;28;20376;-74
2022/05/28 12:13:01;;;;;;;9.05;2.55;;;;;;;;;;5094694;28;20032;-73
2022/05/28 12:15:29;;;;;;;9.05;2.55;;;;;;;;;;5103536;28;20423;-73
2022/05/28 12:18:07;;;;;;;19.00;2.95;;;;;;;;;;5089607;28;20032;-73
2022/05/28 12:20:35;;;;;;;7.97;2.50;;;;;;;;;;5086436;28;20165;-73
2022/05/28 12:23:03;;;;;;;13.43;2.70;;;;;;;;;;5086006;28;20048;-73
2022/05/28 12:25:32;;;;;;;11.27;3.13;;;;;;;;;;5084584;28;20388;-73
2022/05/28 12:28:05;;;;;;;12.25;2.90;;;;;;;;;;5087040;28;20119;-73
2022/05/28 12:30:48;;;;;;;9.45;2.92;;;;;;;;;;5089181;28;20047;-73
2022/05/28 12:33:34;;;;;;;12.02;2.83;;;;;;;;;;5086767;28;20072;-73
2022/05/28 12:36:01;;;;;;;12.20;3.13;;;;;;;;;;5086502;28;20070;-73
2022/05/28 12:38:49;;;;;;;13.32;3.00;;;;;;;;;;5092777;28;20048;-74
2022/05/28 12:41:16;;;;;;;13.70;3.40;;;;;;;;;;5076400;28;20131;-73
2022/05/28 12:44:12;;;;;;;10.75;3.10;;;;;;;;;;5099533;28;20140;-73
2022/05/28 12:46:40;;;;;;;13.23;3.03;;;;;;;;;;5094301;28;20133;-74
2022/05/28 12:49:08;;;;;;;10.60;2.72;;;;;;;;;;5082679;28;20491;-73
2022/05/28 12:51:54;;;;;;;10.75;2.70;;;;;;;;;;5098826;28;20707;-73
2022/05/28 12:54:24;;;;;;;12.07;3.08;;;;;;;;;;5102914;28;20540;-73
2022/05/28 12:56:51;;;;;;;12.10;3.20;;;;;;;;;;5090626;28;20281;-74
2022/05/28 12:59:17;;;;;;;13.18;2.83;;;;;;;;;;5099824;28;20040;-74
2022/05/28 13:02:00;;;;;;;12.48;2.72;;;;;;;;;;5098756;28;20383;-73
2022/05/28 13:04:29;;;;;;;9.70;2.28;;;;;;;;;;5094154;28;20040;-74
2022/05/28 13:06:56;;;;;;;12.10;2.72;;;;;;;;;;5105269;28;20039;-74
2022/05/28 13:09:39;;;;;;;11.48;2.58;;;;;;;;;;5100333;28;20055;-73
2022/05/28 13:12:12;;;;;;;12.07;2.40;;;;;;;;;;5095777;28;20507;-72
2022/05/28 13:14:57;;;;;;;8.75;2.22;;;;;;;;;;5079148;28;20039;-74
2022/05/28 13:17:26;;;;;;;11.85;2.50;;;;;;;;;;5100182;28;20408;-73
2022/05/28 13:20:11;;;;;;;11.23;2.65;;;;;;;;;;5079966;28;20159;-73
2022/05/28 13:22:46;;;;;;;10.13;2.40;;;;;;;;;;5080901;28;20078;-74
2022/05/28 13:25:21;;;;;;;10.02;2.20;;;;;;;;;;5100197;28;20374;-73
2022/05/28 13:27:54;;;;;;;10.63;2.25;;;;;;;;;;5105557;28;20047;-73
2022/05/28 13:30:49;;;;;;;9.43;2.20;;;;;;;;;;5073189;28;20122;-74
2022/05/28 13:33:17;;;;;;;11.23;2.45;;;;;;;;;;5077134;28;20040;-73
2022/05/28 13:35:47;;;;;;;10.43;2.22;;;;;;;;;;5089014;28;20545;-73
2022/05/28 13:38:16;;;;;;;8.77;1.80;;;;;;;;;;5087061;28;20140;-74
2022/05/28 13:40:43;;;;;;;7.45;1.65;;;;;;;;;;5096668;28;20047;-74
2022/05/28 13:43:11;;;;;;;10.10;2.22;;;;;;;;;;5097447;28;20083;-74
2022/05/28 13:45:39;;;;;;;9.60;2.45;;;;;;;;;;5106186;28;20122;-73
2022/05/28 13:48:07;;;;;;;11.20;2.75;;;;;;;;;;5094172;28;20056;-73
2022/05/28 13:50:36;;;;;;;9.57;2.13;;;;;;;;;;5101401;28;20044;-74
2022/05/28 13:53:02;;;;;;;9.63;2.30;;;;;;;;;;5089084;28;20064;-75
2022/05/28 13:55:29;;;;;;;10.00;2.47;;;;;;;;;;5105685;28;20044;-74
2022/05/28 13:57:55;;;;;;;7.63;2.13;;;;;;;;;;5089591;28;20040;-74
2022/05/28 14:00:21;;;;;;;8.57;1.63;;;;;;;;;;5093898;28;20043;-74
2022/05/28 14:02:54;;;;;;;7.35;1.60;;;;;;;;;;5083395;28;20032;-74
2022/05/28 14:05:25;;;;;;;7.95;1.92;;;;;;;;;;5081781;28;20039;-74
2022/05/28 14:07:52;;;;;;;6.63;1.50;;;;;;;;;;5090019;28;20071;-75
2022/05/28 14:10:19;;;;;;;7.85;2.25;;;;;;;;;;5086714;28;20512;-74
2022/05/28 14:12:47;;;;;;;7.10;1.90;;;;;;;;;;5088753;28;20047;-75
2022/05/28 14:15:18;;;;;;;8.00;1.80;;;;;;;;;;5071066;28;20274;-74
2022/05/28 14:17:45;;;;;;;11.35;1.92;;;;;;;;;;5094765;28;20043;-74
2022/05/28 14:20:17;;;;;;;7.45;2.08;;;;;;;;;;5100324;28;20040;-75
2022/05/28 14:22:46;;;;;;;7.30;1.60;;;;;;;;;;5087775;28;20109;-75
2022/05/28 14:25:20;;;;;;;8.70;1.90;;;;;;;;;;5082669;28;20047;-74
2022/05/28 14:27:46;;;;;;;10.20;2.00;;;;;;;;;;5076403;28;20040;-74
2022/05/28 14:30:13;;;;;;;8.55;1.73;;;;;;;;;;5092954;28;20082;-75
2022/05/28 14:32:44;;;;;;;10.13;1.98;;;;;;;;;;5093560;28;20039;-75
2022/05/28 14:35:12;;;;;;;7.95;1.77;;;;;;;;;;5100332;28;20035;-75
2022/05/28 14:37:39;;;;;;;9.55;2.20;;;;;;;;;;5100891;28;20070;-74
2022/05/28 14:40:05;;;;;;;9.70;1.95;;;;;;;;;;5098224;28;20082;-74
2022/05/28 14:42:39;;;;;;;8.95;2.00;;;;;;;;;;5085565;28;20031;-74
2022/05/28 14:45:09;;;;;;;9.98;2.20;;;;;;;;;;5088538;28;20439;-75
2022/05/28 14:47:36;;;;;;;6.65;1.65;;;;;;;;;;5080809;28;20040;-75
2022/05/28 14:50:05;;;;;;;4.50;1.45;;;;;;;;;;5074230;28;20115;-75